createdAt,value
2018-10-02T00:00:43.797Z,95874.1
2018-10-02T00:01:45.948Z,95875.6
2018-10-02T00:02:48.078Z,95870.2
2018-10-02T00:03:50.203Z,95872.5
2018-10-02T00:04:52.638Z,95868.7
2018-10-02T00:05:55.063Z,95866.8
2018-10-02T00:06:57.492Z,95865.6
2018-10-02T00:07:59.654Z,95863.7
2018-10-02T00:09:02.097Z,95863.7
2018-10-02T00:10:04.232Z,95866.3
2018-10-02T00:11:06.662Z,95865.3
2018-10-02T00:12:09.097Z,95866.5
2018-10-02T00:13:11.520Z,95860.3
2018-10-02T00:14:13.953Z,95861.8
2018-10-02T00:15:16.404Z,95864
2018-10-02T00:16:18.836Z,95864.9
2018-10-02T00:17:21.245Z,95867.5
2018-10-02T00:18:23.406Z,95868.9
2018-10-02T00:19:25.852Z,95863.8
2018-10-02T00:20:28.287Z,95866.5
2018-10-02T00:21:30.457Z,95865.3
2018-10-02T00:22:32.614Z,95867.1
2018-10-02T00:23:34.774Z,95865.3
2018-10-02T00:24:37.215Z,95862.3
2018-10-02T00:25:39.656Z,95863.4
2018-10-02T00:26:42.097Z,95864.5
2018-10-02T00:27:44.530Z,95863.1
2018-10-02T00:28:46.967Z,95864.9
2018-10-02T00:29:49.389Z,95864.3
2018-10-02T00:30:51.557Z,95860.5
2018-10-02T00:31:53.706Z,95863.6
2018-10-02T00:32:55.965Z,95861
2018-10-02T00:33:58.140Z,95863.5
2018-10-02T00:35:00.578Z,95860.8
2018-10-02T00:36:03.008Z,95862.2
2018-10-02T00:37:05.436Z,95859.4
2018-10-02T00:38:07.862Z,95860
2018-10-02T00:39:10.308Z,95863.2
2018-10-02T00:40:12.732Z,95863.3
2018-10-02T00:41:15.166Z,95861.6
2018-10-02T00:42:17.586Z,95859.4
2018-10-02T00:43:19.755Z,95862.1
2018-10-02T00:44:22.188Z,95862.6
2018-10-02T00:45:24.644Z,95862.1
2018-10-02T00:46:27.079Z,95861.3
2018-10-02T00:47:29.494Z,95864.6
2018-10-02T00:48:31.932Z,95867.2
2018-10-02T00:49:34.092Z,95871.7
2018-10-02T00:50:36.547Z,95869.5
2018-10-02T00:51:38.976Z,95868.5
2018-10-02T00:52:41.407Z,95870.3
2018-10-02T00:53:43.826Z,95868
2018-10-02T00:54:46.254Z,95868.9
2018-10-02T00:55:48.687Z,95869.3
2018-10-02T00:56:51.133Z,95865.8
2018-10-02T00:57:53.555Z,95866.6
2018-10-02T00:58:55.981Z,95861.6
2018-10-02T00:59:58.153Z,95863.1
2018-10-02T01:01:00.581Z,95868.2
2018-10-02T01:02:02.736Z,95862.8
2018-10-02T01:03:04.893Z,95865.4
2018-10-02T01:04:07.015Z,95868.7
2018-10-02T01:05:09.432Z,95869.2
2018-10-02T01:06:11.610Z,95867.6
2018-10-02T01:07:13.772Z,95864.3
2018-10-02T01:08:15.927Z,95866.7
2018-10-02T01:09:18.094Z,95863.1
2018-10-02T01:10:20.524Z,95863.1
2018-10-02T01:11:22.944Z,95869.4
2018-10-02T01:12:25.376Z,95870.3
2018-10-02T01:13:27.527Z,95872.4
2018-10-02T01:14:29.669Z,95875.1
2018-10-02T01:15:31.547Z,95876.9
2018-10-02T01:16:33.964Z,95875.9
2018-10-02T01:17:36.400Z,95881.3
2018-10-02T01:19:46.600Z,95879.3
2018-10-02T01:20:49.027Z,95874
2018-10-02T01:21:51.165Z,95873.9
2018-10-02T01:22:53.593Z,95876.4
2018-10-02T01:23:56.008Z,95874.3
2018-10-02T01:24:58.169Z,95872
2018-10-02T01:26:00.046Z,95871.8
2018-10-02T01:27:01.908Z,95871.3
2018-10-02T01:28:03.767Z,95872.3
2018-10-02T01:29:05.920Z,95873.8
2018-10-02T01:30:08.336Z,95871
2018-10-02T01:31:10.483Z,95871.3
2018-10-02T01:32:12.634Z,95869.7
2018-10-02T01:33:14.784Z,95873.9
2018-10-02T01:34:16.934Z,95872.9
2018-10-02T01:35:19.366Z,95875.1
2018-10-02T01:36:21.797Z,95870.4
2018-10-02T01:37:24.219Z,95868.1
2018-10-02T01:38:26.377Z,95872.9
2018-10-02T01:39:28.805Z,95870.7
2018-10-02T01:40:31.229Z,95867.9
2018-10-02T01:41:33.112Z,95865.4
2018-10-02T01:42:35.266Z,95874
2018-10-02T01:43:37.696Z,95874.7
2018-10-02T01:44:40.127Z,95873.3
2018-10-02T01:45:42.288Z,95876.3
2018-10-02T01:46:44.446Z,95876.5
2018-10-02T01:47:46.578Z,95881
2018-10-02T01:48:48.996Z,95879.2
2018-10-02T01:49:51.153Z,95876.9
2018-10-02T01:50:53.032Z,95877.4
2018-10-02T01:51:55.190Z,95877
2018-10-02T01:52:57.625Z,95880
2018-10-02T01:54:00.051Z,95884.6
2018-10-02T01:55:02.489Z,95888.1
2018-10-02T01:56:04.718Z,95889.5
2018-10-02T01:57:07.140Z,95884.6
2018-10-02T01:58:09.562Z,95883.5
2018-10-02T01:59:11.982Z,95887.8
2018-10-02T02:00:14.135Z,95889.1
2018-10-02T02:01:16.574Z,95889.7
2018-10-02T02:02:18.470Z,95889.7
2018-10-02T02:03:20.893Z,95897.9
2018-10-02T02:04:22.784Z,95897.4
2018-10-02T02:05:25.211Z,95898.6
2018-10-02T02:06:27.102Z,95904.6
2018-10-02T02:07:29.532Z,95900.5
2018-10-02T02:08:31.696Z,95898.3
2018-10-02T02:09:34.127Z,95904.4
2018-10-02T02:10:36.567Z,95899.9
2018-10-02T02:11:38.992Z,95902.9
2018-10-02T02:12:41.418Z,95904.1
2018-10-02T02:13:43.846Z,95900.5
2018-10-02T02:14:46.268Z,95905.4
2018-10-02T02:15:48.699Z,95907.9
2018-10-02T02:16:51.128Z,95910.3
2018-10-02T02:17:53.279Z,95906.4
2018-10-02T02:18:55.705Z,95907.9
2018-10-02T02:19:58.130Z,95910.2
2018-10-02T02:21:00.296Z,95914.7
2018-10-02T02:22:02.423Z,95910.5
2018-10-02T02:23:04.591Z,95912
2018-10-02T02:24:06.445Z,95912
2018-10-02T02:25:08.887Z,95910.4
2018-10-02T02:26:11.314Z,95918
2018-10-02T02:27:13.746Z,95919.4
2018-10-02T02:28:16.179Z,95918.4
2018-10-02T02:29:18.348Z,95917.9
2018-10-02T02:30:20.779Z,95920
2018-10-02T02:31:23.204Z,95927
2018-10-02T02:32:25.657Z,95927.5
2018-10-02T02:33:28.079Z,95926.5
2018-10-02T02:34:30.503Z,95925.2
2018-10-02T02:35:32.657Z,95925.3
2018-10-02T02:36:35.080Z,95923.4
2018-10-02T02:37:37.496Z,95922.7
2018-10-02T02:38:39.642Z,95924
2018-10-02T02:39:42.074Z,95924.7
2018-10-02T02:40:44.517Z,95922
2018-10-02T02:41:46.948Z,95926.8
2018-10-02T02:42:49.092Z,95925.3
2018-10-02T02:43:51.514Z,95924.3
2018-10-02T02:44:53.648Z,95929.1
2018-10-02T02:45:56.081Z,95930.8
2018-10-02T02:46:58.528Z,95929.3
2018-10-02T02:48:00.699Z,95931.2
2018-10-02T02:49:03.120Z,95936.5
2018-10-02T02:50:05.006Z,95934.3
2018-10-02T02:51:06.876Z,95939.8
2018-10-02T02:52:09.299Z,95938
2018-10-02T02:53:11.725Z,95935.3
2018-10-02T02:54:14.207Z,95936.8
2018-10-02T02:55:16.638Z,95938.9
2018-10-02T02:56:18.782Z,95934.8
2018-10-02T02:57:21.246Z,95937.7
2018-10-02T02:58:23.391Z,95938
2018-10-02T02:59:25.546Z,95933.8
2018-10-02T03:00:27.970Z,95937.1
2018-10-02T03:01:30.407Z,95939.8
2018-10-02T03:02:32.858Z,95941.1
2018-10-02T03:03:35.272Z,95944.3
2018-10-02T03:04:37.704Z,95940.2
2018-10-02T03:05:39.578Z,95944.1
2018-10-02T03:06:42.007Z,95943.3
2018-10-02T03:07:44.176Z,95943.7
2018-10-02T03:08:46.056Z,95946.6
2018-10-02T03:09:48.226Z,95948.9
2018-10-02T03:10:50.641Z,95949.2
2018-10-02T03:11:53.078Z,95950.8
2018-10-02T03:12:55.562Z,95948.6
2018-10-02T03:13:57.970Z,95945.5
2018-10-02T03:15:00.120Z,95952.4
2018-10-02T03:16:02.547Z,95948.8
2018-10-02T03:17:04.973Z,95955.9
2018-10-02T03:18:07.141Z,95952.9
2018-10-02T03:19:09.591Z,95954.5
2018-10-02T03:20:12.014Z,95955.2
2018-10-02T03:21:14.179Z,95957.6
2018-10-02T03:22:16.611Z,95958.2
2018-10-02T03:23:18.742Z,95957.1
2018-10-02T03:24:21.173Z,95959.5
2018-10-02T03:25:23.590Z,95960.1
2018-10-02T03:26:26.019Z,95957.5
2018-10-02T03:27:28.436Z,95958.9
2018-10-02T03:28:30.862Z,95959.8
2018-10-02T03:29:33.017Z,95960.6
2018-10-02T03:30:35.207Z,95960.7
2018-10-02T03:31:37.628Z,95961.5
2018-10-02T03:32:39.803Z,95961.9
2018-10-02T03:33:42.237Z,95963.9
2018-10-02T03:34:44.659Z,95959.8
2018-10-02T03:35:47.095Z,95960.3
2018-10-02T03:36:48.783Z,95958.9
2018-10-02T03:37:51.412Z,95961.8
2018-10-02T03:38:53.977Z,95962.8
2018-10-02T03:39:56.448Z,95960.1
2018-10-02T03:40:58.327Z,95966.3
2018-10-02T03:42:00.768Z,95964.9
2018-10-02T03:43:03.197Z,95961.6
2018-10-02T03:44:05.640Z,95962.9
2018-10-02T03:45:08.074Z,95965.6
2018-10-02T03:46:10.503Z,95959.2
2018-10-02T03:47:12.659Z,95959.5
2018-10-02T03:48:14.799Z,95966.5
2018-10-02T03:49:16.974Z,95970.5
2018-10-02T03:50:19.408Z,95969.2
2018-10-02T03:51:21.838Z,95968.3
2018-10-02T03:52:24.286Z,95976.8
2018-10-02T03:53:26.168Z,95974.8
2018-10-02T03:54:28.616Z,95976.1
2018-10-02T03:55:31.045Z,95981.1
2018-10-02T03:56:33.472Z,95985.9
2018-10-02T03:57:35.615Z,95990.8
2018-10-02T03:58:38.039Z,95993.1
2018-10-02T03:59:39.897Z,95989.8
2018-10-02T04:00:42.322Z,95991.1
2018-10-02T04:01:44.750Z,95987.9
2018-10-02T04:02:46.917Z,95991.4
2018-10-02T04:03:49.074Z,95992.3
2018-10-02T04:04:51.550Z,95990
2018-10-02T04:05:53.712Z,95996.5
2018-10-02T04:06:56.135Z,95991.5
2018-10-02T04:07:58.558Z,95988.2
2018-10-02T04:09:00.990Z,95988.1
2018-10-02T04:10:03.434Z,95988.3
2018-10-02T04:11:05.582Z,95987.3
2018-10-02T04:12:07.769Z,95982.8
2018-10-02T04:13:10.614Z,95983.6
2018-10-02T04:14:13.043Z,95983.3
2018-10-02T04:15:15.484Z,95982.4
2018-10-02T04:16:17.906Z,95983.3
2018-10-02T04:17:20.063Z,95981.3
2018-10-02T04:18:22.497Z,95982
2018-10-02T04:19:24.924Z,95981.1
2018-10-02T04:20:27.099Z,95982.8
2018-10-02T04:21:29.525Z,95982.3
2018-10-02T04:22:31.681Z,95979.7
2018-10-02T04:23:34.099Z,95985.3
2018-10-02T04:24:35.996Z,95981.2
2018-10-02T04:25:38.145Z,95978.5
2018-10-02T04:26:40.593Z,95977.9
2018-10-02T04:27:43.071Z,95980.3
2018-10-02T04:28:45.546Z,95985.3
2018-10-02T04:29:47.405Z,95983.1
2018-10-02T04:30:49.578Z,95986.1
2018-10-02T04:31:52.028Z,95990.3
2018-10-02T04:32:54.178Z,95991.6
2018-10-02T04:33:57.033Z,95996.7
2018-10-02T04:34:59.519Z,95998.2
2018-10-02T04:36:01.657Z,96003
2018-10-02T04:37:04.087Z,95997.1
2018-10-02T04:38:05.957Z,96003.9
2018-10-02T04:39:08.176Z,96008.7
2018-10-02T04:40:10.608Z,96012
2018-10-02T04:41:12.752Z,96012.6
2018-10-02T04:42:15.196Z,96015
2018-10-02T04:43:17.643Z,96015.8
2018-10-02T04:44:19.790Z,96012.8
2018-10-02T04:45:21.960Z,96015.9
2018-10-02T04:46:24.398Z,96014.4
2018-10-02T04:47:26.829Z,96014.6
2018-10-02T04:48:28.713Z,96014
2018-10-02T04:49:30.876Z,96016.8
2018-10-02T04:50:33.303Z,96013
2018-10-02T04:51:35.188Z,96009.7
2018-10-02T04:52:37.604Z,96012.7
2018-10-02T04:53:39.763Z,96012.3
2018-10-02T04:54:42.103Z,96019
2018-10-02T04:55:44.985Z,96013.8
2018-10-02T04:56:47.329Z,96016.8
2018-10-02T04:57:49.754Z,96015.1
2018-10-02T04:58:51.891Z,96012
2018-10-02T04:59:53.776Z,96018.9
2018-10-02T05:00:56.197Z,96015.6
2018-10-02T05:01:58.359Z,96019.7
2018-10-02T05:03:00.794Z,96018.5
2018-10-02T05:04:02.951Z,96020.4
2018-10-02T05:05:05.378Z,96018.4
2018-10-02T05:06:07.237Z,96021.4
2018-10-02T05:07:09.666Z,96022.4
2018-10-02T05:08:12.295Z,96019.7
2018-10-02T05:09:14.428Z,96024.4
2018-10-02T05:10:16.928Z,96021
2018-10-02T05:11:19.118Z,96018.9
2018-10-02T05:12:21.549Z,96011.5
2018-10-02T05:13:24.002Z,96023
2018-10-02T05:14:26.188Z,96018.9
2018-10-02T05:15:28.380Z,96019.8
2018-10-02T05:16:30.824Z,96021.2
2018-10-02T05:17:33.337Z,96024.3
2018-10-02T05:18:35.783Z,96025.7
2018-10-02T05:19:38.232Z,96027.7
2018-10-02T05:20:40.934Z,96020.8
2018-10-02T05:21:43.103Z,96024.1
2018-10-02T05:22:45.244Z,96022
2018-10-02T05:23:47.674Z,96024.6
2018-10-02T05:24:49.867Z,96022.2
2018-10-02T05:25:52.023Z,96021.5
2018-10-02T05:26:54.176Z,96022.6
2018-10-02T05:27:56.329Z,96023.1
2018-10-02T05:28:58.755Z,96021.3
2018-10-02T05:30:01.190Z,96027.1
2018-10-02T05:31:03.382Z,96023.6
2018-10-02T05:32:04.985Z,96025.7
2018-10-02T05:33:07.419Z,96025.5
2018-10-02T05:34:09.862Z,96027.5
2018-10-02T05:35:12.848Z,96021.5
2018-10-02T05:36:15.560Z,96024.1
2018-10-02T05:37:17.717Z,96027.1
2018-10-02T05:38:19.874Z,96023.5
2018-10-02T05:39:22.317Z,96025.9
2018-10-02T05:40:24.765Z,96031.3
2018-10-02T05:41:26.909Z,96031.7
2018-10-02T05:42:29.334Z,96032.5
2018-10-02T05:43:31.760Z,96031.7
2018-10-02T05:44:34.196Z,96034
2018-10-02T05:45:36.324Z,96033.6
2018-10-02T05:46:38.768Z,96035.9
2018-10-02T05:47:40.663Z,96032.8
2018-10-02T05:48:43.099Z,96034.6
2018-10-02T05:49:45.534Z,96036.1
2018-10-02T05:50:47.941Z,96032.1
2018-10-02T05:51:50.107Z,96034.7
2018-10-02T05:52:52.286Z,96034.1
2018-10-02T05:53:54.443Z,96034.7
2018-10-02T05:54:56.881Z,96033.3
2018-10-02T05:55:59.315Z,96037.1
2018-10-02T05:57:01.761Z,96037.1
2018-10-02T05:58:04.192Z,96044.1
2018-10-02T05:59:06.338Z,96045.6
2018-10-02T06:00:08.489Z,96042.8
2018-10-02T06:01:10.907Z,96047.5
2018-10-02T06:02:13.338Z,96049.2
2018-10-02T06:03:15.474Z,96045.3
2018-10-02T06:04:17.908Z,96039.6
2018-10-02T06:05:20.053Z,96040.5
2018-10-02T06:06:22.185Z,96041.3
2018-10-02T06:07:24.646Z,96041.3
2018-10-02T06:08:26.794Z,96042
2018-10-02T06:09:29.225Z,96042
2018-10-02T06:10:31.110Z,96042.8
2018-10-02T06:11:33.546Z,96044.6
2018-10-02T06:12:35.986Z,96045.9
2018-10-02T06:13:38.416Z,96053.5
2018-10-02T06:14:40.855Z,96048.8
2018-10-02T06:15:43.010Z,96052
2018-10-02T06:16:45.455Z,96051.3
2018-10-02T06:17:47.054Z,96059.4
2018-10-02T06:18:50.003Z,96058
2018-10-02T06:19:51.990Z,96057.1
2018-10-02T06:20:54.438Z,96061.5
2018-10-02T06:21:56.328Z,96065.1
2018-10-02T06:22:58.764Z,96065
2018-10-02T06:24:00.896Z,96067.4
2018-10-02T06:25:03.351Z,96067.4
2018-10-02T06:26:05.779Z,96068.3
2018-10-02T06:27:07.947Z,96073.8
2018-10-02T06:28:10.092Z,96074.6
2018-10-02T06:29:12.516Z,96069.5
2018-10-02T06:30:15.039Z,96073.6
2018-10-02T06:31:17.180Z,96075.5
2018-10-02T06:32:19.072Z,96071.7
2018-10-02T06:33:21.220Z,96072.5
2018-10-02T06:34:23.657Z,96076.6
2018-10-02T06:35:26.096Z,96072.7
2018-10-02T06:36:28.001Z,96075.8
2018-10-02T06:37:30.682Z,96074.9
2018-10-02T06:38:34.206Z,96075.8
2018-10-02T06:39:36.761Z,96074.1
2018-10-02T06:40:39.248Z,96074.6
2018-10-02T06:41:41.725Z,96073
2018-10-02T06:42:44.180Z,96072.7
2018-10-02T06:43:47.112Z,96074.8
2018-10-02T06:44:49.778Z,96075.4
2018-10-02T06:45:52.272Z,96078.3
2018-10-02T06:46:54.439Z,96079.4
2018-10-02T06:47:56.863Z,96079.2
2018-10-02T06:48:58.746Z,96080.3
2018-10-02T06:50:01.366Z,96087.6
2018-10-02T06:51:03.954Z,96093.2
2018-10-02T06:52:07.573Z,96101.4
2018-10-02T06:53:10.448Z,96102.3
2018-10-02T06:54:12.897Z,96105.3
2018-10-02T06:55:15.324Z,96103.9
2018-10-02T06:56:17.214Z,96104.5
2018-10-02T06:57:19.666Z,96106
2018-10-02T06:58:22.114Z,96106
2018-10-02T06:59:24.264Z,96105.5
2018-10-02T07:00:26.822Z,96104.5
2018-10-02T07:01:28.726Z,96107.9
2018-10-02T07:02:31.454Z,96108.5
2018-10-02T07:03:34.066Z,96104.9
2018-10-02T07:04:36.258Z,96103.2
2018-10-02T07:05:38.398Z,96104.5
2018-10-02T07:06:41.039Z,96111.2
2018-10-02T07:07:43.168Z,96110.3
2018-10-02T07:08:45.753Z,96109.4
2018-10-02T07:09:48.218Z,96105.6
2018-10-02T07:10:50.634Z,96109.1
2018-10-02T07:11:52.807Z,96114.1
2018-10-02T07:12:55.242Z,96116.4
2018-10-02T07:13:56.865Z,96111.4
2018-10-02T07:14:59.513Z,96110.2
2018-10-02T07:16:02.098Z,96106.5
2018-10-02T07:17:04.530Z,96101.2
2018-10-02T07:18:06.966Z,96096.9
2018-10-02T07:19:09.392Z,96106.4
2018-10-02T07:20:11.547Z,96108.7
2018-10-02T07:21:14.037Z,96106
2018-10-02T07:22:16.477Z,96106.4
2018-10-02T07:23:18.909Z,96113.5
2018-10-02T07:24:21.070Z,96113.2
2018-10-02T07:25:23.490Z,96117.5
2018-10-02T07:26:25.458Z,96115
2018-10-02T07:27:28.357Z,96116.9
2018-10-02T07:28:31.590Z,96116.6
2018-10-02T07:29:34.020Z,96121.2
2018-10-02T07:30:36.724Z,96118
2018-10-02T07:31:39.214Z,96116.6
2018-10-02T07:32:41.566Z,96116
2018-10-02T07:33:43.460Z,96122.4
2018-10-02T07:34:45.633Z,96122.2
2018-10-02T07:35:48.078Z,96124.6
2018-10-02T07:36:50.734Z,96123.5
2018-10-02T07:37:53.157Z,96131.8
2018-10-02T07:38:55.833Z,96129.6
2018-10-02T07:39:58.113Z,96133.7
2018-10-02T07:41:00.561Z,96136.1
2018-10-02T07:42:03.321Z,96141.1
2018-10-02T07:43:05.891Z,96145.6
2018-10-02T07:44:08.098Z,96147.7
2018-10-02T07:45:10.527Z,96147.5
2018-10-02T07:46:12.668Z,96149.9
2018-10-02T07:47:14.838Z,96150.2
2018-10-02T07:48:17.460Z,96149.2
2018-10-02T07:49:19.946Z,96144.7
2018-10-02T07:50:22.402Z,96140.7
2018-10-02T07:51:24.874Z,96138.8
2018-10-02T07:52:26.782Z,96136.7
2018-10-02T07:53:29.434Z,96136.2
2018-10-02T07:54:31.958Z,96135.7
2018-10-02T07:55:34.730Z,96139.4
2018-10-02T07:56:37.312Z,96132
2018-10-02T07:57:39.671Z,96133
2018-10-02T07:58:42.101Z,96132.2
2018-10-02T07:59:45.042Z,96132.3
2018-10-02T08:00:47.459Z,96130.9
2018-10-02T08:01:49.888Z,96128.4
2018-10-02T08:02:52.521Z,96131.7
2018-10-02T08:03:54.747Z,96130.9
2018-10-02T08:04:57.543Z,96131.2
2018-10-02T08:06:00.473Z,96126.6
2018-10-02T08:07:03.060Z,96126.9
2018-10-02T08:08:05.483Z,96120.8
2018-10-02T08:09:07.706Z,96119.9
2018-10-02T08:10:09.919Z,96120.5
2018-10-02T08:11:11.855Z,96119.7
2018-10-02T08:12:14.961Z,96123.5
2018-10-02T08:13:17.605Z,96120.2
2018-10-02T08:14:20.030Z,96122.5
2018-10-02T08:15:22.170Z,96119.4
2018-10-02T08:16:24.617Z,96127.1
2018-10-02T08:17:27.161Z,96129.2
2018-10-02T08:18:29.599Z,96125.1
2018-10-02T08:19:32.030Z,96129.8
2018-10-02T08:20:34.293Z,96124.5
2018-10-02T08:21:36.914Z,96130.1
2018-10-02T08:22:39.366Z,96136.8
2018-10-02T08:23:41.956Z,96131.4
2018-10-02T08:24:44.539Z,96132.4
2018-10-02T08:25:46.714Z,96129.2
2018-10-02T08:26:49.347Z,96129.1
2018-10-02T08:27:51.849Z,96132.3
2018-10-02T08:28:54.280Z,96132.4
2018-10-02T08:29:57.223Z,96128.3
2018-10-02T08:30:59.856Z,96125.2
2018-10-02T08:32:02.295Z,96127.4
2018-10-02T08:33:05.147Z,96129.2
2018-10-02T08:34:07.822Z,96125.1
2018-10-02T08:35:10.379Z,96126.5
2018-10-02T08:36:13.515Z,96127.6
2018-10-02T08:37:15.525Z,96127.8
2018-10-02T08:38:17.962Z,96129.1
2018-10-02T08:39:20.136Z,96132.3
2018-10-02T08:40:22.566Z,96131.3
2018-10-02T08:41:25.007Z,96125.7
2018-10-02T08:42:27.171Z,96123.7
2018-10-02T08:43:30.137Z,96122.4
2018-10-02T08:44:32.903Z,96131
2018-10-02T08:45:35.048Z,96130.2
2018-10-02T08:46:37.489Z,96131.9
2018-10-02T08:47:39.946Z,96127.7
2018-10-02T08:48:42.461Z,96130.5
2018-10-02T08:49:44.604Z,96131.9
2018-10-02T08:50:46.855Z,96133.5
2018-10-02T08:51:49.603Z,96135.6
2018-10-02T08:52:52.169Z,96132.3
2018-10-02T08:53:54.836Z,96133.1
2018-10-02T08:54:57.298Z,96132.2
2018-10-02T08:55:59.451Z,96128.3
2018-10-02T08:57:01.875Z,96126
2018-10-02T08:58:04.308Z,96131.4
2018-10-02T08:59:06.478Z,96132.9
2018-10-02T09:00:08.620Z,96133.5
2018-10-02T09:01:10.996Z,96136.6
2018-10-02T09:02:13.208Z,96132.2
2018-10-02T09:03:16.339Z,96132.9
2018-10-02T09:04:18.927Z,96128.8
2018-10-02T09:05:21.371Z,96141.1
2018-10-02T09:06:23.893Z,96142
2018-10-02T09:07:26.026Z,96139
2018-10-02T09:08:28.456Z,96145.8
2018-10-02T09:09:30.889Z,96147.1
2018-10-02T09:10:33.034Z,96144.5
2018-10-02T09:11:35.466Z,96147.2
2018-10-02T09:12:38.400Z,96145.2
2018-10-02T09:13:40.800Z,96148.2
2018-10-02T09:14:43.228Z,96153.1
2018-10-02T09:15:46.189Z,96146.3
2018-10-02T09:16:49.104Z,96151.3
2018-10-02T09:17:51.681Z,96154.6
2018-10-02T09:18:54.311Z,96153.6
2018-10-02T09:19:56.460Z,96151.8
2018-10-02T09:20:58.896Z,96149.5
2018-10-02T09:22:01.751Z,96145.3
2018-10-02T09:23:04.398Z,96141.7
2018-10-02T09:24:06.829Z,96137.2
2018-10-02T09:25:09.299Z,96142.1
2018-10-02T09:26:11.462Z,96137.1
2018-10-02T09:27:13.646Z,96134.9
2018-10-02T09:28:16.078Z,96140.6
2018-10-02T09:29:18.510Z,96133.4
2018-10-02T09:30:21.370Z,96140.5
2018-10-02T09:31:24.039Z,96132.4
2018-10-02T09:32:25.925Z,96132.9
2018-10-02T09:33:28.432Z,96134.6
2018-10-02T09:34:30.901Z,96127.4
2018-10-02T09:35:33.336Z,96125.3
2018-10-02T09:36:36.090Z,96126.7
2018-10-02T09:37:38.351Z,96131.1
2018-10-02T09:38:40.814Z,96132.6
2018-10-02T09:39:43.845Z,96139.4
2018-10-02T09:40:46.448Z,96136.5
2018-10-02T09:41:48.882Z,96136
2018-10-02T09:42:51.521Z,96134.9
2018-10-02T09:43:53.946Z,96137.2
2018-10-02T09:44:56.517Z,96136.8
2018-10-02T09:45:59.330Z,96131.7
2018-10-02T09:47:01.969Z,96132.6
2018-10-02T09:48:04.396Z,96132.6
2018-10-02T09:49:07.220Z,96129.3
2018-10-02T09:50:09.643Z,96126.3
2018-10-02T09:51:11.798Z,96132.1
2018-10-02T09:52:14.239Z,96130.3
2018-10-02T09:53:16.691Z,96124.2
2018-10-02T09:54:19.113Z,96130.3
2018-10-02T09:55:21.278Z,96126.4
2018-10-02T09:56:23.511Z,96132
2018-10-02T09:57:25.948Z,96128.6
2018-10-02T09:58:28.212Z,96126.5
2018-10-02T09:59:30.049Z,96129.9
2018-10-02T10:00:32.813Z,96129.8
2018-10-02T10:01:34.960Z,96129.1
2018-10-02T10:02:37.810Z,96131.1
2018-10-02T10:03:39.970Z,96132.9
2018-10-02T10:04:42.116Z,96124.7
2018-10-02T10:05:44.552Z,96126.7
2018-10-02T10:06:46.979Z,96125.3
2018-10-02T10:07:49.405Z,96133.6
2018-10-02T10:08:51.581Z,96132.6
2018-10-02T10:09:54.016Z,96127.2
2018-10-02T10:10:56.451Z,96123.9
2018-10-02T10:11:58.884Z,96123.9
2018-10-02T10:13:01.050Z,96124.8
2018-10-02T10:14:03.204Z,96119.1
2018-10-02T10:15:05.628Z,96121.2
2018-10-02T10:16:08.067Z,96126.6
2018-10-02T10:17:10.734Z,96128.1
2018-10-02T10:18:12.957Z,96127
2018-10-02T10:19:15.115Z,96126.9
2018-10-02T10:20:17.549Z,96127.1
2018-10-02T10:21:19.988Z,96124.2
2018-10-02T10:22:22.204Z,96120
2018-10-02T10:23:24.637Z,96125.5
2018-10-02T10:24:27.076Z,96119.9
2018-10-02T10:25:29.234Z,96122.5
2018-10-02T10:26:31.571Z,96124.8
2018-10-02T10:27:33.853Z,96123.3
2018-10-02T10:28:36.575Z,96126.6
2018-10-02T10:29:39.116Z,96122.2
2018-10-02T10:30:41.554Z,96115.8
2018-10-02T10:31:43.685Z,96119.2
2018-10-02T10:32:46.116Z,96121.6
2018-10-02T10:33:48.279Z,96123.3
2018-10-02T10:34:50.439Z,96117.2
2018-10-02T10:35:52.962Z,96123.9
2018-10-02T10:36:55.388Z,96122.2
2018-10-02T10:37:57.545Z,96115.8
2018-10-02T10:38:59.685Z,96120.4
2018-10-02T10:40:02.873Z,96117.5
2018-10-02T10:41:05.348Z,96119.7
2018-10-02T10:42:07.922Z,96116.3
2018-10-02T10:43:10.052Z,96118.9
2018-10-02T10:44:12.483Z,96118.8
2018-10-02T10:45:14.935Z,96110.5
2018-10-02T10:46:17.389Z,96110.7
2018-10-02T10:47:19.827Z,96097.4
2018-10-02T10:48:22.253Z,96102.8
2018-10-02T10:49:24.419Z,96105.5
2018-10-02T10:50:26.294Z,96108.9
2018-10-02T10:51:28.715Z,96109
2018-10-02T10:52:31.406Z,96102.6
2018-10-02T10:53:33.687Z,96106.4
2018-10-02T10:54:36.113Z,96104.9
2018-10-02T10:55:38.354Z,96104.1
2018-10-02T10:56:40.834Z,96099.8
2018-10-02T10:57:43.261Z,96100.9
2018-10-02T10:58:45.814Z,96102.8
2018-10-02T10:59:48.292Z,96103.8
2018-10-02T11:00:50.733Z,96114.8
2018-10-02T11:01:52.336Z,96092.2
2018-10-02T11:02:54.549Z,96101.3
2018-10-02T11:03:57.065Z,96099.8
2018-10-02T11:04:59.866Z,96096.6
2018-10-02T11:06:02.479Z,96089.1
2018-10-02T11:07:04.899Z,96094.5
2018-10-02T11:08:07.171Z,96082.7
2018-10-02T11:09:09.347Z,96085.9
2018-10-02T11:10:11.547Z,96092.4
2018-10-02T11:11:13.705Z,96087.4
2018-10-02T11:12:16.147Z,96082
2018-10-02T11:13:18.310Z,96070.5
2018-10-02T11:14:20.445Z,96073.3
2018-10-02T11:15:23.337Z,96075.7
2018-10-02T11:16:25.944Z,96074.3
2018-10-02T11:17:28.379Z,96069.6
2018-10-02T11:18:30.533Z,96061.6
2018-10-02T11:19:32.902Z,96063.5
2018-10-02T11:20:35.145Z,96055.7
2018-10-02T11:21:37.308Z,96057.2
2018-10-02T11:22:39.749Z,96056.2
2018-10-02T11:23:42.178Z,96050.2
2018-10-02T11:24:44.076Z,96052.5
2018-10-02T11:25:46.797Z,96051.3
2018-10-02T11:26:49.349Z,96050.4
2018-10-02T11:27:51.770Z,96059
2018-10-02T11:28:53.933Z,96059.3
2018-10-02T11:29:56.533Z,96055.2
2018-10-02T11:30:58.701Z,96063.1
2018-10-02T11:32:00.866Z,96056.2
2018-10-02T11:33:03.299Z,96053.8
2018-10-02T11:34:04.886Z,96057.3
2018-10-02T11:35:07.049Z,96061.2
2018-10-02T11:36:08.930Z,96046.6
2018-10-02T11:37:11.518Z,96054.3
2018-10-02T11:38:14.034Z,96058.4
2018-10-02T11:39:16.464Z,96053.2
2018-10-02T11:40:18.894Z,96055.3
2018-10-02T11:41:21.056Z,96057.7
2018-10-02T11:42:22.961Z,96053.5
2018-10-02T11:43:26.033Z,96058.6
2018-10-02T11:44:28.613Z,96055.6
2018-10-02T11:45:31.231Z,96053.4
2018-10-02T11:46:33.395Z,96047.6
2018-10-02T11:47:35.581Z,96045
2018-10-02T11:48:37.436Z,96045
2018-10-02T11:49:40.199Z,96045.9
2018-10-02T11:50:42.885Z,96048.2
2018-10-02T11:51:45.317Z,96050.5
2018-10-02T11:52:47.452Z,96041.3
2018-10-02T11:53:49.882Z,96043.5
2018-10-02T11:54:52.319Z,96050.3
2018-10-02T11:55:54.968Z,96046.9
2018-10-02T11:56:57.405Z,96048
2018-10-02T11:57:59.853Z,96042.3
2018-10-02T11:59:02.009Z,96034.5
2018-10-02T12:00:04.439Z,96031.2
2018-10-02T12:01:07.432Z,96030.4
2018-10-02T12:02:10.375Z,96026.9
2018-10-02T12:03:12.931Z,96027.2
2018-10-02T12:04:15.374Z,96022.7
2018-10-02T12:05:17.807Z,96018.4
2018-10-02T12:06:19.968Z,96016
2018-10-02T12:07:22.161Z,96014.2
2018-10-02T12:08:24.604Z,96019.6
2018-10-02T12:09:26.764Z,96009.5
2018-10-02T12:10:28.938Z,96013.5
2018-10-02T12:11:31.623Z,96007.5
2018-10-02T12:12:33.867Z,96008.5
2018-10-02T12:13:36.597Z,96004.1
2018-10-02T12:14:39.417Z,96007.9
2018-10-02T12:15:41.897Z,96010
2018-10-02T12:16:44.321Z,96011.5
2018-10-02T12:17:46.777Z,96013.6
2018-10-02T12:18:49.215Z,96013.1
2018-10-02T12:19:53.000Z,96004.1
2018-10-02T12:20:55.365Z,96000.9
2018-10-02T12:21:57.849Z,96001.5
2018-10-02T12:23:00.268Z,96000.9
2018-10-02T12:24:02.426Z,96002
2018-10-02T12:25:04.861Z,96000.2
2018-10-02T12:26:07.322Z,96006.4
2018-10-02T12:27:09.776Z,95999.9
2018-10-02T12:28:12.227Z,96005.4
2018-10-02T12:29:14.150Z,96006.7
2018-10-02T12:30:16.301Z,96003.8
2018-10-02T12:31:19.034Z,96002.4
2018-10-02T12:32:21.707Z,96001.3
2018-10-02T12:33:24.150Z,96003.5
2018-10-02T12:34:25.737Z,95998.4
2018-10-02T12:35:27.877Z,95996.3
2018-10-02T12:36:30.035Z,95997.1
2018-10-02T12:37:32.468Z,95999.3
2018-10-02T12:38:34.276Z,95994.9
2018-10-02T12:39:36.559Z,95996.2